createdAt,value
2018-04-25T00:01:54.489Z,15.46
2018-04-25T00:04:21.982Z,15.49
2018-04-25T00:06:49.452Z,15.24
2018-04-25T00:09:16.937Z,15.45
2018-04-25T00:11:44.556Z,15.43
2018-04-25T00:14:12.056Z,15.38
2018-04-25T00:16:39.712Z,15.05
2018-04-25T00:19:07.213Z,15.04
2018-04-25T00:21:34.692Z,15.24
2018-04-25T00:24:02.142Z,14.96
2018-04-25T00:26:29.627Z,14.92
2018-04-25T00:28:57.110Z,15.04
2018-04-25T00:31:24.665Z,15.07
2018-04-25T00:33:52.158Z,15.15
2018-04-25T00:36:19.624Z,15.22
2018-04-25T00:38:47.095Z,15.27
2018-04-25T00:41:14.588Z,14.97
2018-04-25T00:43:42.090Z,15.05
2018-04-25T00:46:09.571Z,15.08
2018-04-25T00:48:37.103Z,14.91
2018-04-25T00:51:04.590Z,15.03
2018-04-25T00:53:32.092Z,15.07
2018-04-25T00:55:59.724Z,14.85
2018-04-25T00:58:27.210Z,14.78
2018-04-25T01:00:54.695Z,14.63
2018-04-25T01:03:22.183Z,14.85
2018-04-25T01:05:49.752Z,14.90
2018-04-25T01:08:17.250Z,14.86
2018-04-25T01:10:44.724Z,14.90
2018-04-25T01:13:12.228Z,14.70
2018-04-25T01:15:39.691Z,14.65
2018-04-25T01:18:07.170Z,14.70
2018-04-25T01:20:34.680Z,14.61
2018-04-25T01:23:04.853Z,14.77
2018-04-25T01:25:33.297Z,15.13
2018-04-25T01:28:07.609Z,15.28
2018-04-25T01:33:33.892Z,15.27
2018-04-25T01:36:01.368Z,15.18
2018-04-25T01:38:32.347Z,15.23
2018-04-25T01:40:59.832Z,15.29
2018-04-25T01:43:27.388Z,15.35
2018-04-25T01:46:10.744Z,15.31
2018-04-25T01:51:45.479Z,15.43
2018-04-25T01:54:24.813Z,15.63
2018-04-25T01:57:03.988Z,15.81
2018-04-25T01:59:43.339Z,15.70
2018-04-25T02:02:10.329Z,15.46
2018-04-25T02:04:37.780Z,15.55
2018-04-25T02:07:05.266Z,15.46
2018-04-25T02:09:32.874Z,15.51
2018-04-25T02:12:00.362Z,15.47
2018-04-25T02:14:27.958Z,15.36
2018-04-25T02:16:55.449Z,15.02
2018-04-25T02:19:22.938Z,15.10
2018-04-25T02:21:50.611Z,15.08
2018-04-25T02:24:18.091Z,15.13
2018-04-25T02:26:45.576Z,15.16
2018-04-25T02:29:13.048Z,15.02
2018-04-25T02:31:40.518Z,14.93
2018-04-25T02:34:07.995Z,14.88
2018-04-25T02:36:35.466Z,14.92
2018-04-25T02:39:02.960Z,15.10
2018-04-25T02:41:30.443Z,15.09
2018-04-25T02:43:57.917Z,14.91
2018-04-25T02:46:25.379Z,14.88
2018-04-25T02:48:52.869Z,14.87
2018-04-25T02:51:20.408Z,14.84
2018-04-25T02:53:47.862Z,14.94
2018-04-25T02:56:15.367Z,14.91
2018-04-25T02:58:42.836Z,14.84
2018-04-25T03:01:10.325Z,14.83
2018-04-25T03:03:37.814Z,14.67
2018-04-25T03:06:05.354Z,14.66
2018-04-25T03:08:32.846Z,14.62
2018-04-25T03:11:00.330Z,14.59
2018-04-25T03:13:27.818Z,14.62
2018-04-25T03:15:55.377Z,14.56
2018-04-25T03:18:22.859Z,14.49
2018-04-25T03:20:50.347Z,14.47
2018-04-25T03:23:17.821Z,14.27
2018-04-25T03:25:45.298Z,14.40
2018-04-25T03:28:12.769Z,14.40
2018-04-25T03:30:40.447Z,14.48
2018-04-25T03:33:07.918Z,14.39
2018-04-25T03:35:35.432Z,14.37
2018-04-25T03:38:02.913Z,14.44
2018-04-25T03:40:30.623Z,14.47
2018-04-25T03:42:58.105Z,14.18
2018-04-25T03:45:25.645Z,14.43
2018-04-25T03:47:53.185Z,14.45
2018-04-25T03:50:20.675Z,14.34
2018-04-25T03:52:48.163Z,14.41
2018-04-25T03:55:15.651Z,14.47
2018-04-25T03:57:43.127Z,14.47
2018-04-25T04:00:10.660Z,14.27
2018-04-25T04:02:38.169Z,14.34
2018-04-25T04:05:05.688Z,14.46
2018-04-25T04:07:33.146Z,14.51
2018-04-25T04:10:00.602Z,14.58
2018-04-25T04:12:28.075Z,14.41
2018-04-25T04:14:55.608Z,14.66
2018-04-25T04:17:23.297Z,14.85
2018-04-25T04:19:50.772Z,15.01
2018-04-25T04:22:18.392Z,15.06
2018-04-25T04:24:45.862Z,14.91
2018-04-25T04:27:13.461Z,15.14
2018-04-25T04:29:40.943Z,15.21
2018-04-25T04:32:09.391Z,15.09
2018-04-25T04:34:36.894Z,14.98
2018-04-25T04:37:04.441Z,14.90
2018-04-25T04:39:31.887Z,15.00
2018-04-25T04:41:59.361Z,14.85
2018-04-25T04:44:26.829Z,14.89
2018-04-25T04:46:54.410Z,14.92
2018-04-25T04:49:21.888Z,15.01
2018-04-25T04:51:49.371Z,15.08
2018-04-25T04:54:16.847Z,15.07
2018-04-25T04:56:44.294Z,15.05
2018-04-25T04:59:11.756Z,15.14
2018-04-25T05:01:39.247Z,15.12
2018-04-25T05:04:06.706Z,15.08
2018-04-25T05:06:34.204Z,15.45
2018-04-25T05:09:01.701Z,15.63
2018-04-25T05:11:29.185Z,15.95
2018-04-25T05:13:56.784Z,16.23
2018-04-25T05:16:24.240Z,16.15
2018-04-25T05:18:51.737Z,16.02
2018-04-25T05:21:19.195Z,16.19
2018-04-25T05:23:46.690Z,16.15
2018-04-25T05:26:14.173Z,16.36
2018-04-25T05:28:41.724Z,16.44
2018-04-25T05:31:09.217Z,16.36
2018-04-25T05:33:36.680Z,16.43
2018-04-25T05:36:04.203Z,16.47
2018-04-25T05:38:31.763Z,16.73
2018-04-25T05:40:59.372Z,17.00
2018-04-25T05:43:26.845Z,17.18
2018-04-25T05:45:54.323Z,17.41
2018-04-25T05:48:21.839Z,17.51
2018-04-25T05:50:49.329Z,17.69
2018-04-25T05:53:16.808Z,17.73
2018-04-25T05:55:44.283Z,17.89
2018-04-25T05:58:11.811Z,17.69
2018-04-25T06:00:39.279Z,17.88
2018-04-25T06:03:06.766Z,17.91
2018-04-25T06:05:34.247Z,18.36
2018-04-25T06:08:02.508Z,18.57
2018-04-25T06:10:30.028Z,18.63
2018-04-25T06:12:57.533Z,18.99
2018-04-25T06:15:25.015Z,18.84
2018-04-25T06:17:52.523Z,19.09
2018-04-25T06:20:20.068Z,18.84
2018-04-25T06:22:47.514Z,18.47
2018-04-25T06:25:15.019Z,18.43
2018-04-25T06:27:42.480Z,18.60
2018-04-25T06:30:09.976Z,18.79
2018-04-25T06:32:37.458Z,18.51
2018-04-25T06:35:04.936Z,18.50
2018-04-25T06:37:32.437Z,18.92
2018-04-25T06:39:59.932Z,18.77
2018-04-25T06:42:27.408Z,18.84
2018-04-25T06:44:54.945Z,19.07
2018-04-25T06:47:22.406Z,19.19
2018-04-25T06:49:49.873Z,19.17
2018-04-25T06:52:17.425Z,19.41
2018-04-25T06:54:44.913Z,19.39
2018-04-25T06:57:12.427Z,19.46
2018-04-25T06:59:40.118Z,19.36
2018-04-25T07:02:07.582Z,19.56
2018-04-25T07:04:35.084Z,19.82
2018-04-25T07:07:02.574Z,20.03
2018-04-25T07:09:30.332Z,20.03
2018-04-25T07:11:57.826Z,20.01
2018-04-25T07:14:25.301Z,19.78
2018-04-25T07:16:52.784Z,19.64
2018-04-25T07:19:20.274Z,19.53
2018-04-25T07:21:47.905Z,19.45
2018-04-25T07:24:15.433Z,19.81
2018-04-25T07:26:43.105Z,19.92
2018-04-25T07:29:10.606Z,20.01
2018-04-25T07:31:38.079Z,20.06
2018-04-25T07:34:05.546Z,20.17
2018-04-25T07:36:33.101Z,20.19
2018-04-25T07:39:00.580Z,20.16
2018-04-25T07:41:28.074Z,20.58
2018-04-25T07:43:55.559Z,20.90
2018-04-25T07:46:23.035Z,21.03
2018-04-25T07:48:50.495Z,21.03
2018-04-25T07:51:18.112Z,20.98
2018-04-25T07:53:45.592Z,20.96
2018-04-25T07:56:13.077Z,21.13
2018-04-25T07:58:40.559Z,21.26
2018-04-25T08:01:08.850Z,21.23
2018-04-25T08:03:36.345Z,21.50
2018-04-25T08:06:03.947Z,21.75
2018-04-25T08:08:31.434Z,21.93
2018-04-25T08:10:58.918Z,21.79
2018-04-25T08:13:38.242Z,22.24
2018-04-25T08:16:17.644Z,22.20
2018-04-25T08:21:46.973Z,21.91
2018-04-25T08:24:14.715Z,22.21
2018-04-25T08:26:42.189Z,22.78
2018-04-25T08:29:09.683Z,22.85
2018-04-25T08:31:37.179Z,22.68
2018-04-25T08:34:04.688Z,22.30
2018-04-25T08:36:32.177Z,22.19
2018-04-25T08:38:59.667Z,22.52
2018-04-25T08:41:27.133Z,22.64
2018-04-25T08:43:54.608Z,22.53
2018-04-25T08:46:22.095Z,22.76
2018-04-25T08:48:49.575Z,22.75
2018-04-25T08:51:17.065Z,22.66
2018-04-25T08:53:44.547Z,22.34
2018-04-25T08:56:12.775Z,21.88
2018-04-25T08:58:40.223Z,21.81
2018-04-25T09:01:07.714Z,21.52
2018-04-25T09:03:35.216Z,21.67
2018-04-25T09:06:02.714Z,21.63
2018-04-25T09:08:30.195Z,21.46
2018-04-25T09:10:57.709Z,21.49
2018-04-25T09:13:25.211Z,21.50
2018-04-25T09:15:52.688Z,21.50
2018-04-25T09:18:20.180Z,21.64
2018-04-25T09:20:47.688Z,21.78
2018-04-25T09:23:15.977Z,21.78
2018-04-25T09:25:43.529Z,21.96
2018-04-25T09:28:11.029Z,21.95
2018-04-25T09:30:38.691Z,22.33
2018-04-25T09:33:06.165Z,22.76
2018-04-25T09:35:33.738Z,22.69
2018-04-25T09:38:01.225Z,22.63
2018-04-25T09:40:28.730Z,22.46
2018-04-25T09:42:56.204Z,22.59
2018-04-25T09:45:23.688Z,22.41
2018-04-25T09:47:51.153Z,22.30
2018-04-25T09:50:19.067Z,22.75
2018-04-25T09:52:46.560Z,22.64
2018-04-25T09:55:14.225Z,22.41
2018-04-25T09:57:41.685Z,22.80
2018-04-25T10:00:09.143Z,22.64
2018-04-25T10:02:36.620Z,22.27
2018-04-25T10:05:04.111Z,22.29
2018-04-25T10:07:31.590Z,21.69
2018-04-25T10:09:59.064Z,21.86
2018-04-25T10:12:26.562Z,21.88
2018-04-25T10:14:54.043Z,22.25
2018-04-25T10:17:21.547Z,22.63
2018-04-25T10:19:49.143Z,22.69
2018-04-25T10:22:16.630Z,22.36
2018-04-25T10:24:44.102Z,22.22
2018-04-25T10:27:11.601Z,22.30
2018-04-25T10:29:39.086Z,22.46
2018-04-25T10:32:07.224Z,22.65
2018-04-25T10:34:34.978Z,22.72
2018-04-25T10:37:02.469Z,22.56
2018-04-25T10:39:30.116Z,22.55
2018-04-25T10:41:57.570Z,22.82
2018-04-25T10:44:25.045Z,22.63
2018-04-25T10:46:52.540Z,22.31
2018-04-25T10:49:20.151Z,22.21
2018-04-25T10:51:47.704Z,22.17
2018-04-25T10:54:15.170Z,22.19
2018-04-25T10:56:42.802Z,22.02
2018-04-25T10:59:10.363Z,21.91
2018-04-25T11:01:38.097Z,22.37
2018-04-25T11:04:05.592Z,22.49
2018-04-25T11:06:33.058Z,22.54
2018-04-25T11:09:00.529Z,22.51
2018-04-25T11:11:28.015Z,22.42
2018-04-25T11:13:55.489Z,22.67
2018-04-25T11:16:22.987Z,22.50
2018-04-25T11:18:50.459Z,22.77
2018-04-25T11:21:17.972Z,22.87
2018-04-25T11:23:45.452Z,22.79
2018-04-25T11:26:12.933Z,22.77
2018-04-25T11:28:40.429Z,22.93
2018-04-25T11:31:07.955Z,23.22
2018-04-25T11:33:35.437Z,22.73
2018-04-25T11:36:02.944Z,22.71
2018-04-25T11:38:30.532Z,23.12
2018-04-25T11:40:58.024Z,22.90
2018-04-25T11:43:25.509Z,22.36
2018-04-25T11:45:53.080Z,22.67
2018-04-25T11:48:20.575Z,22.86
2018-04-25T11:50:48.052Z,23.03
2018-04-25T11:53:15.581Z,23.63
2018-04-25T11:55:43.084Z,23.61
2018-04-25T11:58:10.680Z,24.39
2018-04-25T12:00:38.170Z,24.99
2018-04-25T12:03:05.650Z,24.48
2018-04-25T12:05:33.128Z,24.54
2018-04-25T12:08:00.608Z,25.43
2018-04-25T12:10:31.476Z,26.29
2018-04-25T12:12:59.052Z,28.06
2018-04-25T12:15:26.611Z,27.89
2018-04-25T12:17:54.157Z,28.35
2018-04-25T12:20:21.641Z,29.23
2018-04-25T12:22:49.114Z,28.60
2018-04-25T12:25:16.584Z,29.37
2018-04-25T12:27:44.124Z,27.88
2018-04-25T12:30:11.631Z,27.80
2018-04-25T12:32:39.180Z,27.60
2018-04-25T12:35:06.790Z,28.23
2018-04-25T12:37:34.274Z,28.77
2018-04-25T12:40:01.756Z,29.91
2018-04-25T12:42:29.252Z,31.37
2018-04-25T12:44:56.926Z,30.65
2018-04-25T12:47:24.428Z,30.90
2018-04-25T12:49:51.932Z,30.98
2018-04-25T12:52:19.428Z,29.95
2018-04-25T12:54:46.925Z,29.23
2018-04-25T12:57:14.420Z,28.89
2018-04-25T12:59:41.941Z,27.77
2018-04-25T13:02:09.509Z,26.12
2018-04-25T13:04:37.017Z,26.02
2018-04-25T13:07:04.584Z,24.98
2018-04-25T13:09:32.178Z,23.76
2018-04-25T13:11:59.662Z,25.41
2018-04-25T13:14:27.149Z,24.87
2018-04-25T13:16:54.682Z,26.13
2018-04-25T13:19:22.185Z,27.26
2018-04-25T13:21:49.673Z,27.97
2018-04-25T13:24:17.132Z,28.43
2018-04-25T13:26:44.628Z,29.01
2018-04-25T13:29:12.207Z,30.21
2018-04-25T13:31:41.764Z,29.34
2018-04-25T13:34:09.258Z,28.63
2018-04-25T13:36:36.873Z,29.17
2018-04-25T13:39:04.411Z,29.89
2018-04-25T13:41:31.915Z,29.16
2018-04-25T13:43:59.412Z,27.95
2018-04-25T13:46:26.897Z,28.44
2018-04-25T13:48:54.412Z,29.18
2018-04-25T13:51:21.884Z,29.22
2018-04-25T13:53:49.477Z,29.48
2018-04-25T13:56:16.968Z,27.48
2018-04-25T13:58:44.491Z,27.77
2018-04-25T14:01:12.121Z,29.14
2018-04-25T14:03:39.621Z,27.99
2018-04-25T14:06:07.919Z,27.67
2018-04-25T14:08:37.892Z,27.79
2018-04-25T14:11:05.890Z,26.26
2018-04-25T14:13:33.939Z,24.12
2018-04-25T14:16:01.731Z,23.00
2018-04-25T14:18:29.495Z,22.82
2018-04-25T14:20:57.196Z,22.02
2018-04-25T14:23:25.028Z,21.81
2018-04-25T14:25:52.707Z,21.71
2018-04-25T14:28:20.215Z,21.43
2018-04-25T14:30:47.712Z,21.05
2018-04-25T14:33:15.210Z,21.07
2018-04-25T14:35:42.872Z,21.37
2018-04-25T14:38:10.409Z,21.66
2018-04-25T14:40:37.907Z,21.55
2018-04-25T14:43:05.404Z,21.25
2018-04-25T14:45:33.082Z,22.36
2018-04-25T14:48:00.621Z,23.14
2018-04-25T14:50:28.127Z,24.08
2018-04-25T14:52:55.592Z,24.06
2018-04-25T14:55:23.171Z,24.18
2018-04-25T14:57:50.879Z,24.08
2018-04-25T15:00:18.352Z,25.20
2018-04-25T15:02:45.837Z,24.59
2018-04-25T15:05:13.312Z,23.45
2018-04-25T15:07:41.387Z,23.01
2018-04-25T15:10:08.872Z,22.88
2018-04-25T15:12:36.426Z,22.01
2018-04-25T15:15:04.038Z,21.92
2018-04-25T15:17:31.524Z,21.66
2018-04-25T15:19:59.101Z,21.64
2018-04-25T15:22:26.631Z,21.34
2018-04-25T15:24:54.104Z,21.30
2018-04-25T15:27:21.595Z,21.20
2018-04-25T15:29:49.075Z,21.37
2018-04-25T15:32:16.618Z,21.27
2018-04-25T15:34:44.332Z,20.98
2018-04-25T15:37:12.137Z,21.28
2018-04-25T15:39:39.651Z,20.92
2018-04-25T15:42:07.387Z,20.93
2018-04-25T15:44:34.880Z,21.07
2018-04-25T15:47:02.424Z,21.31
2018-04-25T15:49:29.890Z,21.91
2018-04-25T15:51:57.382Z,24.27
2018-04-25T15:54:24.954Z,25.71
2018-04-25T15:56:52.421Z,26.01
2018-04-25T15:59:19.888Z,26.84
2018-04-25T16:01:47.372Z,25.94
2018-04-25T16:04:14.869Z,25.64
2018-04-25T16:06:42.375Z,26.32
2018-04-25T16:09:09.836Z,25.17
2018-04-25T16:11:37.313Z,24.51
2018-04-25T16:14:04.878Z,25.35
2018-04-25T16:16:32.388Z,25.58
2018-04-25T16:18:59.870Z,25.78
2018-04-25T16:21:27.364Z,25.33
2018-04-25T16:23:54.916Z,25.16
2018-04-25T16:26:22.740Z,26.09
2018-04-25T16:28:50.309Z,25.92
2018-04-25T16:31:17.835Z,27.16
2018-04-25T16:33:45.265Z,28.48
2018-04-25T16:36:12.791Z,27.34
2018-04-25T16:38:40.268Z,28.16
2018-04-25T16:41:07.761Z,27.80
2018-04-25T16:43:35.237Z,26.94
2018-04-25T16:46:02.709Z,24.69
2018-04-25T16:48:30.215Z,24.73
2018-04-25T16:50:57.740Z,25.13
2018-04-25T16:53:25.273Z,25.66
2018-04-25T16:55:52.844Z,25.06
2018-04-25T16:58:20.444Z,25.34
2018-04-25T17:00:48.087Z,25.33
2018-04-25T17:03:15.584Z,24.82
2018-04-25T17:05:43.046Z,22.46
2018-04-25T17:08:10.591Z,21.09
2018-04-25T17:10:38.096Z,20.24
2018-04-25T17:13:05.611Z,19.80
2018-04-25T17:15:33.105Z,19.55
2018-04-25T17:18:00.770Z,20.13
2018-04-25T17:20:28.328Z,20.30
2018-04-25T17:22:56.001Z,20.17
2018-04-25T17:25:23.521Z,19.32
2018-04-25T17:27:51.045Z,19.14
2018-04-25T17:30:18.691Z,18.90
2018-04-25T17:32:46.148Z,18.65
2018-04-25T17:35:13.624Z,18.38
2018-04-25T17:37:41.374Z,18.23
2018-04-25T17:40:15.249Z,18.17
2018-04-25T17:42:42.955Z,18.01
2018-04-25T17:48:12.049Z,17.94
2018-04-25T17:50:39.534Z,17.89
2018-04-25T17:53:24.488Z,17.85
2018-04-25T17:56:05.139Z,17.57
2018-04-25T17:58:40.189Z,17.60
2018-04-25T18:01:10.680Z,17.53
2018-04-25T18:03:56.796Z,17.43
2018-04-25T18:06:37.827Z,17.26
2018-04-25T18:09:08.825Z,17.11
2018-04-25T18:11:47.729Z,17.06
2018-04-25T18:14:34.701Z,17.03
2018-04-25T18:17:06.902Z,16.93
2018-04-25T18:24:55.015Z,16.63
2018-04-25T18:27:22.550Z,16.54
2018-04-25T18:29:50.106Z,16.45
2018-04-25T18:32:17.611Z,16.45
2018-04-25T18:34:45.100Z,16.39
2018-04-25T18:37:12.675Z,16.32
2018-04-25T18:39:40.220Z,16.24
2018-04-25T18:42:08.317Z,16.16
2018-04-25T18:44:36.151Z,16.09
2018-04-25T18:47:04.277Z,16.02
2018-04-25T18:49:31.781Z,15.95
2018-04-25T18:51:59.413Z,15.96
2018-04-25T18:54:26.877Z,15.95
2018-04-25T18:56:54.346Z,15.88
2018-04-25T18:59:21.806Z,15.93
2018-04-25T19:01:49.387Z,15.83
2018-04-25T19:04:16.948Z,15.79
2018-04-25T19:06:44.557Z,15.70
2018-04-25T19:09:12.443Z,15.65
2018-04-25T19:11:39.963Z,15.63
2018-04-25T19:14:07.494Z,15.53
2018-04-25T19:16:35.027Z,15.50
2018-04-25T19:19:03.964Z,15.51
2018-04-25T19:21:31.497Z,15.55
2018-04-25T19:23:59.374Z,15.55
2018-04-25T19:26:27.193Z,15.55
2018-04-25T19:28:54.815Z,15.52
2018-04-25T19:31:22.481Z,15.48
2018-04-25T19:33:50.964Z,15.45
2018-04-25T19:36:18.436Z,15.52
2018-04-25T19:38:45.916Z,15.56
2018-04-25T19:41:13.400Z,15.56
2018-04-25T19:43:40.971Z,15.56
2018-04-25T19:46:08.553Z,15.61
2018-04-25T19:48:36.128Z,15.62
2018-04-25T19:51:03.683Z,15.63
2018-04-25T19:53:31.304Z,15.65
2018-04-25T19:55:59.035Z,15.61
2018-04-25T19:58:26.617Z,15.63
2018-04-25T20:00:54.088Z,15.60
2018-04-25T20:03:21.568Z,15.61
2018-04-25T20:05:49.062Z,15.58
2018-04-25T20:08:16.633Z,15.50
2018-04-25T20:10:44.490Z,15.50
2018-04-25T20:13:12.090Z,15.49
2018-04-25T20:15:39.629Z,15.47
2018-04-25T20:18:07.116Z,15.46
2018-04-25T20:20:34.612Z,15.47
2018-04-25T20:23:02.273Z,15.42
2018-04-25T20:25:29.798Z,15.46
2018-04-25T20:27:57.281Z,15.46
2018-04-25T20:30:24.767Z,15.39
2018-04-25T20:32:52.237Z,15.33
2018-04-25T20:35:19.695Z,15.26
2018-04-25T20:37:47.296Z,15.24
2018-04-25T20:40:14.780Z,15.22
2018-04-25T20:42:42.365Z,15.10
2018-04-25T20:45:09.834Z,15.01
2018-04-25T20:47:37.317Z,14.94
2018-04-25T20:50:04.939Z,14.84
2018-04-25T20:52:32.528Z,14.89
2018-04-25T20:55:00.270Z,14.82
2018-04-25T20:57:28.025Z,14.69
2018-04-25T20:59:55.608Z,14.64
2018-04-25T21:02:23.155Z,14.51
2018-04-25T21:04:50.655Z,14.43
2018-04-25T21:07:18.213Z,14.36
2018-04-25T21:09:45.707Z,14.33
2018-04-25T21:12:13.173Z,14.23
2018-04-25T21:14:40.791Z,14.15
2018-04-25T21:17:08.262Z,14.12
2018-04-25T21:19:35.826Z,14.15
2018-04-25T21:22:03.388Z,14.08
2018-04-25T21:24:31.007Z,13.95
2018-04-25T21:26:58.501Z,13.97
2018-04-25T21:29:25.989Z,13.92
2018-04-25T21:31:53.549Z,13.97
2018-04-25T21:34:21.032Z,13.98
2018-04-25T21:36:48.684Z,14.03
2018-04-25T21:39:16.168Z,14.04
2018-04-25T21:41:43.659Z,14.08
2018-04-25T21:44:11.203Z,14.04
2018-04-25T21:46:38.694Z,14.00
2018-04-25T21:49:06.174Z,13.97
2018-04-25T21:51:33.773Z,13.88
2018-04-25T21:54:01.279Z,13.78
2018-04-25T21:56:28.720Z,13.86
2018-04-25T21:58:56.205Z,13.81
2018-04-25T22:01:23.689Z,13.75
2018-04-25T22:03:51.163Z,13.73
2018-04-25T22:06:18.661Z,13.78
2018-04-25T22:08:46.152Z,13.82
2018-04-25T22:11:13.623Z,13.83
2018-04-25T22:13:41.130Z,13.83
2018-04-25T22:16:08.594Z,13.81
2018-04-25T22:18:36.071Z,13.71
2018-04-25T22:21:03.804Z,13.43
2018-04-25T22:23:31.318Z,13.10
2018-04-25T22:25:58.785Z,12.78
2018-04-25T22:28:26.356Z,12.41
2018-04-25T22:30:53.847Z,12.26
2018-04-25T22:33:21.321Z,12.20
2018-04-25T22:35:48.790Z,11.95
2018-04-25T22:38:16.284Z,11.99
2018-04-25T22:40:43.740Z,12.02
2018-04-25T22:43:11.253Z,12.07
2018-04-25T22:45:38.768Z,12.01
2018-04-25T22:48:06.280Z,12.06
2018-04-25T22:50:33.729Z,12.05
2018-04-25T22:53:01.320Z,12.02
2018-04-25T22:55:28.807Z,12.05
2018-04-25T22:57:56.297Z,12.06
2018-04-25T23:00:23.764Z,12.00
2018-04-25T23:02:51.239Z,11.96
2018-04-25T23:05:18.729Z,11.89
2018-04-25T23:07:46.191Z,11.95
2018-04-25T23:10:13.703Z,11.90
2018-04-25T23:12:41.174Z,11.89
2018-04-25T23:15:08.659Z,11.90
2018-04-25T23:17:36.136Z,11.91
2018-04-25T23:20:03.645Z,11.96
2018-04-25T23:22:31.115Z,11.99
2018-04-25T23:24:58.654Z,12.01
2018-04-25T23:27:26.115Z,11.98
2018-04-25T23:29:53.604Z,11.97
2018-04-25T23:32:21.069Z,11.86
2018-04-25T23:34:48.558Z,11.85
2018-04-25T23:37:16.043Z,11.88
2018-04-25T23:39:43.530Z,11.83
2018-04-25T23:42:11.035Z,11.78
2018-04-25T23:44:38.505Z,11.80
2018-04-25T23:47:07.064Z,11.80
2018-04-25T23:49:34.520Z,11.83
2018-04-25T23:52:02.109Z,11.85
2018-04-25T23:54:29.675Z,11.70
2018-04-25T23:56:57.172Z,11.70
2018-04-25T23:59:24.716Z,11.70
